createdAt,value
2022-09-09T00:02:06.865Z,4.47
2022-09-09T00:07:15.105Z,4.50
2022-09-09T00:12:20.493Z,4.50
2022-09-09T00:17:28.097Z,4.28
2022-09-09T00:22:32.858Z,4.60
2022-09-09T00:27:39.961Z,4.00
2022-09-09T00:32:42.683Z,5.38
2022-09-09T00:37:45.750Z,5.50
2022-09-09T00:42:51.189Z,6.80
2022-09-09T00:47:54.658Z,6.63
2022-09-09T00:53:00.934Z,7.43
2022-09-09T00:58:04.729Z,8.45
2022-09-09T01:03:15.635Z,9.90
2022-09-09T01:08:29.079Z,10.45
2022-09-09T01:13:35.635Z,12.07
2022-09-09T01:18:39.681Z,12.40
2022-09-09T01:24:02.857Z,13.38
2022-09-09T01:29:08.886Z,13.68
2022-09-09T01:34:12.421Z,14.02
2022-09-09T01:39:15.083Z,14.77
2022-09-09T01:44:19.276Z,14.43
2022-09-09T01:49:21.886Z,13.95
2022-09-09T01:54:26.746Z,13.73
2022-09-09T02:05:37.814Z,14.65
2022-09-09T02:10:44.249Z,15.52
2022-09-09T02:15:49.476Z,15.50
2022-09-09T02:20:53.682Z,13.77
2022-09-09T02:25:57.825Z,15.20
2022-09-09T02:31:01.636Z,14.77
2022-09-09T02:36:07.685Z,14.15
2022-09-09T02:41:10.361Z,14.95
2022-09-09T02:46:22.062Z,14.10
2022-09-09T02:51:30.491Z,14.05
2022-09-09T02:56:35.580Z,12.80
2022-09-09T03:01:38.273Z,13.05
2022-09-09T03:06:42.134Z,14.25
2022-09-09T03:11:44.519Z,13.25
2022-09-09T03:16:47.308Z,12.93
2022-09-09T03:21:51.101Z,13.63
2022-09-09T03:26:53.666Z,13.43
2022-09-09T03:31:56.097Z,13.13
2022-09-09T03:36:59.926Z,12.73
2022-09-09T03:42:04.878Z,12.50
2022-09-09T03:47:07.734Z,13.45
2022-09-09T03:52:13.404Z,12.30
2022-09-09T03:57:17.727Z,12.18
2022-09-09T04:02:20.267Z,11.82
2022-09-09T04:07:24.011Z,12.83
2022-09-09T04:12:26.402Z,11.18
2022-09-09T04:17:28.762Z,11.57
2022-09-09T04:22:32.920Z,10.73
2022-09-09T04:27:35.327Z,12.15
2022-09-09T04:32:37.855Z,11.60
2022-09-09T04:37:41.729Z,12.80
2022-09-09T04:42:45.003Z,11.85
2022-09-09T04:52:51.080Z,11.15
2022-09-09T04:57:53.457Z,11.55
2022-09-09T05:02:55.849Z,10.70
2022-09-09T05:08:04.499Z,10.32
2022-09-09T05:13:07.437Z,10.18
2022-09-09T05:18:09.824Z,10.18
2022-09-09T05:23:14.294Z,8.70
2022-09-09T05:28:16.782Z,8.88
2022-09-09T05:33:19.134Z,8.83
2022-09-09T05:38:28.568Z,7.90
2022-09-09T05:43:32.595Z,8.80
2022-09-09T05:48:35.667Z,7.07
2022-09-09T05:53:39.601Z,7.47
2022-09-09T05:58:44.702Z,6.85
2022-09-09T06:03:47.909Z,6.38
2022-09-09T06:13:55.441Z,6.68
2022-09-09T06:18:58.780Z,6.85
2022-09-09T06:24:01.625Z,5.65
2022-09-09T06:29:06.010Z,5.45
2022-09-09T06:34:09.499Z,5.57
2022-09-09T06:39:14.647Z,5.45
2022-09-09T06:44:18.826Z,4.82
2022-09-09T06:49:21.178Z,4.40
2022-09-09T06:54:24.741Z,4.33
2022-09-09T06:59:29.097Z,4.10
2022-09-09T07:04:31.908Z,3.78
2022-09-09T07:09:34.248Z,4.60
2022-09-09T07:14:38.514Z,3.30
2022-09-09T07:19:40.857Z,3.35
2022-09-09T07:24:43.542Z,3.33
2022-09-09T07:29:47.330Z,3.03
2022-09-09T07:34:51.156Z,2.58
2022-09-09T07:39:53.496Z,2.92
2022-09-09T07:44:57.180Z,2.72
2022-09-09T07:49:59.737Z,2.38
2022-09-09T07:55:03.102Z,2.83
2022-09-09T08:00:07.469Z,2.85
2022-09-09T08:05:09.897Z,3.08
2022-09-09T08:10:12.514Z,3.08
2022-09-09T08:15:16.163Z,2.80
2022-09-09T08:20:18.664Z,2.45
2022-09-09T08:25:22.126Z,2.50
2022-09-09T08:30:25.838Z,2.47
2022-09-09T08:35:28.498Z,2.75
2022-09-09T08:40:31.910Z,3.15
2022-09-09T08:45:40.189Z,2.67
2022-09-09T08:50:44.263Z,3.03
2022-09-09T08:55:49.338Z,2.70
2022-09-09T09:01:05.110Z,2.67
2022-09-09T09:06:11.678Z,2.38
2022-09-09T09:11:14.031Z,2.38
2022-09-09T09:16:24.086Z,2.28
2022-09-09T09:21:30.846Z,2.10
2022-09-09T09:26:34.557Z,2.42
2022-09-09T09:31:38.247Z,1.83
2022-09-09T09:36:42.340Z,1.90
2022-09-09T09:41:44.937Z,2.00
2022-09-09T09:46:48.698Z,2.85
2022-09-09T09:51:51.150Z,1.90
2022-09-09T09:56:53.799Z,2.17
2022-09-09T10:06:59.858Z,2.58
2022-09-09T10:12:06.577Z,1.92
2022-09-09T10:17:15.274Z,1.50
2022-09-09T10:22:26.691Z,1.92
2022-09-09T10:27:34.869Z,2.05
2022-09-09T10:32:42.245Z,1.75
2022-09-09T10:38:02.564Z,2.47
2022-09-09T10:43:15.002Z,1.67
2022-09-09T10:48:22.963Z,2.37
2022-09-09T10:53:34.532Z,2.08
2022-09-09T10:58:43.585Z,2.08
2022-09-09T11:03:49.299Z,1.40
2022-09-09T11:08:55.032Z,1.65
2022-09-09T11:14:04.238Z,1.73
2022-09-09T11:19:11.914Z,1.42
2022-09-09T11:24:16.729Z,0.98
2022-09-09T11:29:40.093Z,1.25
2022-09-09T11:34:52.674Z,1.50
2022-09-09T11:40:10.770Z,1.27
2022-09-09T11:45:21.423Z,1.42
2022-09-09T11:50:32.895Z,1.35
2022-09-09T11:55:37.725Z,1.30
2022-09-09T12:00:42.496Z,1.73
2022-09-09T12:05:47.411Z,1.63
2022-09-09T12:10:56.049Z,1.95
2022-09-09T12:15:59.152Z,1.25
2022-09-09T12:21:08.668Z,1.52
2022-09-09T12:26:29.054Z,2.10
2022-09-09T12:31:35.392Z,1.83
2022-09-09T12:36:39.814Z,1.30
2022-09-09T12:41:42.204Z,1.70
2022-09-09T12:46:45.634Z,3.00
2022-09-09T12:51:49.390Z,2.90
2022-09-09T12:56:52.203Z,2.88
2022-09-09T13:01:57.889Z,2.80
2022-09-09T13:07:12.546Z,2.78
2022-09-09T13:12:16.216Z,2.85
2022-09-09T13:17:21.289Z,1.63
2022-09-09T13:22:35.333Z,1.98
2022-09-09T13:27:40.471Z,2.10
2022-09-09T13:32:42.882Z,2.05
2022-09-09T13:37:47.154Z,1.60
2022-09-09T13:42:53.327Z,1.38
2022-09-09T13:47:56.404Z,1.63
2022-09-09T13:53:00.503Z,1.75
2022-09-09T13:58:03.509Z,1.80
2022-09-09T14:03:05.914Z,2.38
2022-09-09T14:08:14.492Z,2.25
2022-09-09T14:13:17.226Z,2.63
2022-09-09T14:18:19.616Z,2.90
2022-09-09T14:23:25.314Z,2.90
2022-09-09T14:28:52.073Z,2.63
2022-09-09T14:33:52.690Z,2.25
2022-09-09T14:38:56.426Z,2.00
2022-09-09T14:44:01.233Z,2.25
2022-09-09T14:49:03.685Z,2.20
2022-09-09T14:54:07.435Z,2.35
2022-09-09T14:59:09.787Z,2.60
2022-09-09T15:04:13.595Z,2.10
2022-09-09T15:09:17.259Z,2.28
2022-09-09T15:14:22.588Z,2.90
2022-09-09T15:19:27.657Z,2.30
2022-09-09T15:24:31.408Z,2.60
2022-09-09T15:29:33.906Z,2.47
2022-09-09T15:34:36.262Z,2.17
2022-09-09T15:39:40.051Z,2.45
2022-09-09T15:44:43.394Z,2.22
2022-09-09T15:49:45.780Z,3.00
2022-09-09T15:54:49.526Z,2.25
2022-09-09T15:59:51.912Z,2.55
2022-09-09T16:04:54.326Z,2.67
2022-09-09T16:09:57.978Z,2.53
2022-09-09T16:15:00.542Z,2.53
2022-09-09T16:20:03.334Z,2.60
2022-09-09T16:25:07.832Z,2.47
2022-09-09T16:30:11.040Z,2.50
2022-09-09T16:35:13.423Z,3.13
2022-09-09T16:40:18.724Z,3.13
2022-09-09T16:45:21.176Z,2.85
2022-09-09T16:50:23.573Z,2.47
2022-09-09T16:55:27.632Z,2.80
2022-09-09T17:00:29.997Z,3.20
2022-09-09T17:05:33.646Z,2.90
2022-09-09T17:10:41.814Z,3.25
2022-09-09T17:15:44.374Z,2.70
2022-09-09T17:20:47.404Z,2.45
2022-09-09T17:30:55.176Z,2.55
2022-09-09T17:35:59.574Z,3.70
2022-09-09T17:41:05.606Z,2.80
2022-09-09T17:46:10.523Z,2.33
2022-09-09T17:51:14.753Z,3.33
2022-09-09T17:56:18.421Z,3.47
2022-09-09T18:01:23.515Z,3.55
2022-09-09T18:06:27.543Z,3.50
2022-09-09T18:11:31.888Z,4.07
2022-09-09T18:16:36.238Z,4.47
2022-09-09T18:21:38.735Z,3.50
2022-09-09T18:26:41.835Z,2.80
2022-09-09T18:31:46.066Z,2.38
2022-09-09T18:36:49.973Z,1.90
2022-09-09T18:41:52.982Z,2.20
2022-09-09T18:46:57.124Z,2.38
2022-09-09T18:51:59.937Z,3.22
2022-09-09T18:57:02.404Z,2.92
2022-09-09T19:02:06.163Z,2.80
2022-09-09T19:07:08.518Z,3.20
2022-09-09T19:12:10.843Z,3.27
2022-09-09T19:17:14.654Z,3.40
2022-09-09T19:22:18.019Z,3.95
2022-09-09T19:27:20.467Z,3.85
2022-09-09T19:37:46.498Z,5.53
2022-09-09T19:42:49.670Z,5.37
2022-09-09T19:47:53.443Z,6.30
2022-09-09T19:52:56.125Z,5.80
2022-09-09T19:57:58.533Z,6.18
2022-09-09T20:03:18.791Z,6.13
2022-09-09T20:08:22.150Z,6.18
2022-09-09T20:13:24.599Z,6.43
2022-09-09T20:18:31.075Z,6.00
2022-09-09T20:23:34.441Z,5.65
2022-09-09T20:28:38.167Z,6.28
2022-09-09T20:33:42.597Z,6.75
2022-09-09T20:38:45.597Z,7.13
2022-09-09T20:43:49.184Z,6.65
2022-09-09T20:48:56.731Z,6.95
2022-09-09T20:54:03.816Z,6.03
2022-09-09T20:59:06.848Z,5.75
2022-09-09T21:04:12.361Z,5.95
2022-09-09T21:09:14.913Z,5.97
2022-09-09T21:14:17.335Z,6.73
2022-09-09T21:19:22.071Z,6.10
2022-09-09T21:24:24.435Z,6.60
2022-09-09T21:29:26.804Z,6.60
2022-09-09T21:34:30.541Z,8.13
2022-09-09T21:39:32.988Z,7.75
2022-09-09T21:44:35.398Z,9.07
2022-09-09T21:49:39.141Z,8.47
2022-09-09T21:54:43.124Z,9.68
2022-09-09T21:59:45.469Z,9.93
2022-09-09T22:04:49.482Z,11.55
2022-09-09T22:09:51.818Z,11.60
2022-09-09T22:14:56.483Z,11.25
2022-09-09T22:20:00.234Z,12.35
2022-09-09T22:25:02.686Z,13.50
2022-09-09T22:30:05.421Z,13.20
2022-09-09T22:35:09.977Z,13.68
2022-09-09T22:40:14.008Z,14.35
2022-09-09T22:45:16.788Z,13.75
2022-09-09T22:50:20.520Z,15.18
2022-09-09T22:55:22.887Z,15.88
2022-09-09T23:00:25.773Z,17.08
2022-09-09T23:05:30.563Z,17.17
2022-09-09T23:10:33.722Z,17.25
2022-09-09T23:15:37.081Z,16.33
2022-09-09T23:25:43.115Z,17.20
2022-09-09T23:30:47.061Z,18.30
2022-09-09T23:35:50.698Z,18.52
2022-09-09T23:40:54.418Z,19.60
2022-09-09T23:45:57.754Z,19.58
2022-09-09T23:56:05.113Z,20.85
